Ride Results

Bendemeer (06-05-2007)
Ride distance: 80.0 km

Outcomes - Bendemeer (06-05-2007)
Division No. of Entries Retired / DNE Completed Withdrawn Ineligible V/O Percentage Completed
HW 20 - 14 5 - 1 70.00%
MW 23 - 18 4 - 1 78.26%
LW 16 - 15 - - 1 93.75%
JN 10 - 6 1 - 3 60.00%
Totals 69 - 53 10 - 6 76.81%
Results - Bendemeer (06-05-2007)
No. Rider Horse Place Time Leg Speeds Total
Km/Hr
H/R bpm
Heavyweight
30 Virginia Blain Salam Mezzlah 1 (BC) 3:51:00 23.5, 18.6 20.78 42, 43, 41 (Avg:42)
12 Bern Harvey Velona Sinttara 2 3:51:20 21.8, 19.7 20.75 30, 40, 48 (Avg:44)
37 Steve Brooks Harmere Lahsa 3 5:03:00 18.3, 13.9 15.84 38, 47, 48 (Avg:47)
47 Paddy Smith Nurelee Talisman 4 5:33:00 17.1, 12.4 14.41 36, 46, 54 (Avg:50)
15 Mark Wormell Dakila Renaissance 5 5:46:00 16.3, 12.0 13.87 38, 46, 50 (Avg:48)
52 Marylou Locke Ally 6 5:49:00 15.2, 12.4 13.75 36, 42, 46 (Avg:44)
28 Rod Mitchell Aloha Naja 7 5:57:00 14.7, 12.3 13.45 32, 43, 52 (Avg:47)
34 Leonie Blessing Jamar Cheeky 8 6:30:00 12.7, 11.8 12.31 28, 35, 47 (Avg:41)
18 Terry McMurrrich Nihal City Extra 9 7:08:00 12.1, 10.3 11.21 36, 43, 50 (Avg:46)
20 Phil Coleman Rainbows Reach Scout 10 7:18:00 12.1, 9.9 10.96 36, 45, 45 (Avg:45)
24 Col Thomson Brieema Celebration 11 7:42:00 13.1, 8.6 10.39 30, 41, 42 (Avg:41)
68 Allan Caslick Alandell Muskett 12 7:49:00 10.5, 9.9 10.23 36, 38, 54 (Avg:46)
26 Graeme Burchell Zena 13 7:54:00 11.4, 9.0 10.13 36, 42, 54 (Avg:48)
69 Ian Dreghorn Rufus 14 8:03:00 10.4, 9.4 9.94 36, 42, 49 (Avg:45)
3 Duncan Satchell Peppermint Springs Ladino Lame L2 0:00:00 23.5, 15.0 - 40, 55, 57 (Avg:56)
54 Renee Edwards Castlereagh Kahlua Widthdrawn L1 0:00:00 - - 40, 0 (Avg:0)
39 Gavin Groth Sparkey Power Widthdrawn L1 0:00:00 - - 42, 53 (Avg:53)
2 Kym Hagon Diamond R Boston Widthdrawn L1 0:00:00 - - 38, 44 (Avg:44)
29 Jane Martin Dot Martin Widthdrawn L1 0:00:00 - - 38, 45 (Avg:45)
67 Peter Strickland Cameo Zanadu Widthdrawn L1 0:00:00 - - 36, 37 (Avg:37)
Middleweight
56 Judith Burton Woodbourne Ruby 1 (BC) 3:50:00 23.5, 18.7 20.87 30, 38, 40 (Avg:39)
41 Brad Dillon Ebonglen Holmegaard 2 4:35:00 22.0, 14.4 17.45 35, 47, 49 (Avg:48)
16 Daphne Phillips Bachelor Boy 3 4:40:00 19.6, 15.1 17.14 44, 43, 46 (Avg:44)
14 Peter Kelly Wollumbin Faiz 4 4:56:00 18.4, 14.4 16.22 36, 39, 39 (Avg:39)
32 Raymond Griffiths Ginger Megs 5 5:03:00 14.5, 17.3 15.84 36, 41, 44 (Avg:42)
57 Sally Griffin Jualane Park Apollo 6 5:46:00 14.7, 13.1 13.87 40, 46, 46 (Avg:46)
50 Bernice King Noble Navaar Destiny 7 6:23:00 14.5, 11.0 12.53 37, 39, 48 (Avg:43)
36 Andrew Blakely Aloha Kyrie 8 6:35:00 12.6, 11.7 12.15 38, 41, 42 (Avg:41)
65 Luke Harvey Box Hill Ralph 9 6:43:00 12.7, 11.1 11.91 37, 45, 54 (Avg:49)
64 Patricia Waddell Box Hill Tonderburine 9 6:43:00 13.2, 10.8 11.91 32, 40, 41 (Avg:40)
63 Kate Pilley Tuldar Regal Reggie 11 6:52:00 13.2, 10.3 11.65 34, 39, 46 (Avg:42)
51 Sonya Ruprecht Summerwood Naivasha 12 6:57:00 12.1, 10.9 11.51 36, 44, 47 (Avg:45)
10 Suzanne Barton Wattle Vale Cyrahbi 13 7:04:00 11.5, 11.0 11.32 40, 44, 46 (Avg:45)
43 Katrina Bodewes Booramby Silver Elk 14 7:30:00 11.8, 9.7 10.67 34, 47, 50 (Avg:48)
44 Lyn Dillon Judstan Susannah 14 7:30:00 11.8, 9.7 10.67 41, 50, 54 (Avg:52)
7 Tracy Haack Woodbury Shazoo 16 7:42:00 13.0, 8.6 10.39 42, 46, 58 (Avg:52)
55 Glenda Edwards Vudu Flyte 17 7:49:00 11.4, 9.2 10.23 36, 45, 60 (Avg:52)
5 Victoria Bonham Calypso Jessica 18 8:05:00 10.4, 9.4 9.90 40, 36, 47 (Avg:41)
4 Chris Noonan Mukalla Park Jobarry Lame L2 0:00:00 10.4, 9.4 - 44, 45, 49 (Avg:47)
31 Carol Griffiths Alhambra Jazz Dancer Widthdrawn L1 0:00:00 - - 40, 39 (Avg:39)
60 Bob Howden Pindari Park Rahal Widthdrawn L1 0:00:00 - - 40, 42 (Avg:42)
8 Renee Kirk Cherox Assassin Widthdrawn L1 0:00:00 - - 44, 46 (Avg:46)
13 Luke Harvey Hammer Widthdrawn P/R 0:00:00 - - 36
Lightweight
58 Rebecca Hogan Rowallan Sonic 1 3:51:00 23.5, 18.6 20.78 33, 43, 47 (Avg:45)
48 Melanie Anderson Ausden Kon Tiki 2 (BC) 4:56:00 18.0, 14.7 16.22 38, 42, 54 (Avg:48)
38 Julie Brooks Aloha Byshara 3 5:03:00 18.3, 13.9 15.84 39, 46, 47 (Avg:46)
59 Carol Layton Omani Mr Sqiggle 4 5:28:00 15.4, 13.8 14.63 32, 44, 49 (Avg:46)
1 Kim Hagon Gandari Alva Caasteele 5 6:11:00 14.7, 11.5 12.94 35, 41, 44 (Avg:42)
9 Libby Jones Riverdance Kahlua 5 6:11:00 14.6, 11.5 12.94 36, 39, 48 (Avg:43)
49 Gloria Mills Glendos Sabodie 7 6:23:00 14.5, 11.0 12.53 34, 37, 35 (Avg:36)
25 Jessica Taylor Diamond R Muriel 8 6:35:00 13.5, 11.0 12.15 37, 44, 46 (Avg:45)
22 Patsy Trevor Shahfa 9 6:42:00 12.7, 11.2 11.94 40, 38, 38 (Avg:38)
19 Linda Logan Follydown Topaz 10 7:08:00 13.7, 9.4 11.21 36, 47, 59 (Avg:53)
21 Ros Ryan Cloudburst 11 7:18:00 12.1, 9.9 10.96 38, 46, 47 (Avg:46)
27 Jennifer Annetts Churinga Goldfire 12 7:19:00 12.2, 9.8 10.93 34, 43, 47 (Avg:45)
40 Elizabeth Staunton Torryburn Empress 13 7:24:00 12.7, 9.3 10.81 40, 42, 46 (Avg:44)
17 Abby McMurrich Fire Phoenix 14 7:38:00 12.1, 9.1 10.48 34, 45, 45 (Avg:45)
66 Tara Brown Hazeldean Shakla Rose 15 7:49:00 10.5, 9.9 10.23 44, 44, 53 (Avg:48)
46 Rhonda Locke Diamond T Nazrullah Lame L2 0:00:00 11.3, 11.0 - 38, 43, 54 (Avg:48)
Junior
11 Sharna Harvey Binks 1 (BC) 3:51:10 21.8, 19.8 20.76 34, 36, 42 (Avg:39)
45 Mia Bodewes Leshal Asrahk 2 4:35:00 22.0, 14.4 17.45 39, 43, 50 (Avg:46)
61 Seton Croake Cameo Stormboy 3 5:47:00 15.1, 12.6 13.83 38, 41, 47 (Avg:44)
62 Blake Pilley Tuldar Kosta 3 5:47:00 15.1, 12.6 13.83 30, 0, 41 (Avg:20)
42 Zoe Locke Espirit Candyman 5 7:09:00 11.0, 11.3 11.19 36, 43, 49 (Avg:46)
6 Indigo Noonan Wilari Stud Countess 6 8:05:00 10.4, 9.4 9.90 36, 44, 52 (Avg:48)
53 Sophie Babic Eastern Park Reflection Lame L2 0:00:00 11.3, 11.0 - 42, 44, 51 (Avg:47)
35 Rebecca Blessing Jamar Elle May Lame L2 0:00:00 12.7, 11.8 - 36, 40, 47 (Avg:43)
33 Anthony R Blessing Jnr Jamar Jester Lame L1 0:00:00 12.7 - 36, 38 (Avg:38)
23 Ronnie Thomson Megsy Widthdrawn L1 0:00:00 - - 36, 44 (Avg:44)